sensor_id;sensor_type;location;lat;lon;timestamp;temperature;humidity
54898;DHT22;40800;52.704;6.398;2023-04-25T00:01:14;6.20;99.90
54898;DHT22;40800;52.704;6.398;2023-04-25T00:03:40;6.50;99.90
54898;DHT22;40800;52.704;6.398;2023-04-25T00:06:06;6.90;99.90
54898;DHT22;40800;52.704;6.398;2023-04-25T00:08:32;6.10;99.90
54898;DHT22;40800;52.704;6.398;2023-04-25T00:10:58;6.90;99.90
54898;DHT22;40800;52.704;6.398;2023-04-25T00:13:23;6.30;99.90
54898;DHT22;40800;52.704;6.398;2023-04-25T00:15:51;5.80;99.90
54898;DHT22;40800;52.704;6.398;2023-04-25T00:18:18;5.80;99.90
54898;DHT22;40800;52.704;6.398;2023-04-25T00:20:44;5.60;99.90
54898;DHT22;40800;52.704;6.398;2023-04-25T00:23:15;5.60;99.90
54898;DHT22;40800;52.704;6.398;2023-04-25T00:25:45;6.40;99.90
54898;DHT22;40800;52.704;6.398;2023-04-25T00:28:11;6.10;99.90
54898;DHT22;40800;52.704;6.398;2023-04-25T00:30:38;5.60;99.90
54898;DHT22;40800;52.704;6.398;2023-04-25T00:33:03;6.10;99.90
54898;DHT22;40800;52.704;6.398;2023-04-25T00:35:29;5.50;99.90
54898;DHT22;40800;52.704;6.398;2023-04-25T00:37:55;5.50;99.90
54898;DHT22;40800;52.704;6.398;2023-04-25T00:40:21;5.50;99.90
54898;DHT22;40800;52.704;6.398;2023-04-25T00:42:47;5.30;99.90
54898;DHT22;40800;52.704;6.398;2023-04-25T00:45:14;6.00;99.90
54898;DHT22;40800;52.704;6.398;2023-04-25T00:47:41;5.40;99.90
54898;DHT22;40800;52.704;6.398;2023-04-25T00:50:07;6.20;99.90
54898;DHT22;40800;52.704;6.398;2023-04-25T00:52:33;6.30;99.90
54898;DHT22;40800;52.704;6.398;2023-04-25T00:54:59;6.20;99.90
54898;DHT22;40800;52.704;6.398;2023-04-25T00:57:25;5.30;99.90
54898;DHT22;40800;52.704;6.398;2023-04-25T00:59:51;6.00;99.90
54898;DHT22;40800;52.704;6.398;2023-04-25T01:02:18;5.60;99.90
54898;DHT22;40800;52.704;6.398;2023-04-25T01:04:46;5.30;99.90
54898;DHT22;40800;52.704;6.398;2023-04-25T01:07:12;5.30;99.90
54898;DHT22;40800;52.704;6.398;2023-04-25T01:09:38;5.80;99.90
54898;DHT22;40800;52.704;6.398;2023-04-25T01:12:04;5.80;99.90
54898;DHT22;40800;52.704;6.398;2023-04-25T01:14:30;6.10;99.90
54898;DHT22;40800;52.704;6.398;2023-04-25T01:16:56;5.40;99.90
54898;DHT22;40800;52.704;6.398;2023-04-25T01:19:21;6.10;99.90
54898;DHT22;40800;52.704;6.398;2023-04-25T01:21:47;5.90;99.90
54898;DHT22;40800;52.704;6.398;2023-04-25T01:24:13;5.10;99.90
54898;DHT22;40800;52.704;6.398;2023-04-25T01:26:40;5.90;99.90
54898;DHT22;40800;52.704;6.398;2023-04-25T01:29:09;5.10;99.90
54898;DHT22;40800;52.704;6.398;2023-04-25T01:31:36;5.10;99.90
54898;DHT22;40800;52.704;6.398;2023-04-25T01:34:02;5.10;99.90
54898;DHT22;40800;52.704;6.398;2023-04-25T01:36:28;6.00;99.90
54898;DHT22;40800;52.704;6.398;2023-04-25T01:38:53;5.30;99.90
54898;DHT22;40800;52.704;6.398;2023-04-25T01:41:20;6.10;99.90
54898;DHT22;40800;52.704;6.398;2023-04-25T01:43:48;5.80;99.90
54898;DHT22;40800;52.704;6.398;2023-04-25T01:46:13;5.40;99.90
54898;DHT22;40800;52.704;6.398;2023-04-25T01:48:39;6.30;99.90
54898;DHT22;40800;52.704;6.398;2023-04-25T01:51:05;6.00;99.90
54898;DHT22;40800;52.704;6.398;2023-04-25T01:53:30;5.60;99.90
54898;DHT22;40800;52.704;6.398;2023-04-25T01:55:56;6.40;99.90
54898;DHT22;40800;52.704;6.398;2023-04-25T01:58:21;6.10;99.90
54898;DHT22;40800;52.704;6.398;2023-04-25T02:00:47;6.40;99.90
54898;DHT22;40800;52.704;6.398;2023-04-25T02:03:12;6.50;99.90
54898;DHT22;40800;52.704;6.398;2023-04-25T02:05:39;6.40;99.90
54898;DHT22;40800;52.704;6.398;2023-04-25T02:08:08;5.70;99.90
54898;DHT22;40800;52.704;6.398;2023-04-25T02:10:35;5.60;99.90
54898;DHT22;40800;52.704;6.398;2023-04-25T02:13:01;5.70;99.90
54898;DHT22;40800;52.704;6.398;2023-04-25T02:15:26;5.80;99.90
54898;DHT22;40800;52.704;6.398;2023-04-25T02:17:52;6.50;99.90
54898;DHT22;40800;52.704;6.398;2023-04-25T02:20:20;5.80;99.90
54898;DHT22;40800;52.704;6.398;2023-04-25T02:22:46;5.60;99.90
54898;DHT22;40800;52.704;6.398;2023-04-25T02:25:11;5.90;99.90
54898;DHT22;40800;52.704;6.398;2023-04-25T02:27:37;6.30;99.90
54898;DHT22;40800;52.704;6.398;2023-04-25T02:30:04;5.80;99.90
54898;DHT22;40800;52.704;6.398;2023-04-25T02:32:30;5.60;99.90
54898;DHT22;40800;52.704;6.398;2023-04-25T02:34:55;5.70;99.90
54898;DHT22;40800;52.704;6.398;2023-04-25T02:37:24;5.70;99.90
54898;DHT22;40800;52.704;6.398;2023-04-25T02:39:49;6.40;99.90
54898;DHT22;40800;52.704;6.398;2023-04-25T02:42:15;5.90;99.90
54898;DHT22;40800;52.704;6.398;2023-04-25T02:44:41;5.80;99.90
54898;DHT22;40800;52.704;6.398;2023-04-25T02:47:06;6.60;99.90
54898;DHT22;40800;52.704;6.398;2023-04-25T02:49:32;5.90;99.90
54898;DHT22;40800;52.704;6.398;2023-04-25T02:51:57;6.30;99.90
54898;DHT22;40800;52.704;6.398;2023-04-25T02:54:24;6.00;99.90
54898;DHT22;40800;52.704;6.398;2023-04-25T02:56:49;6.00;99.90
54898;DHT22;40800;52.704;6.398;2023-04-25T02:59:15;6.00;99.90
54898;DHT22;40800;52.704;6.398;2023-04-25T03:01:40;6.10;99.90
54898;DHT22;40800;52.704;6.398;2023-04-25T03:04:06;6.90;99.90
54898;DHT22;40800;52.704;6.398;2023-04-25T03:06:31;6.10;99.90
54898;DHT22;40800;52.704;6.398;2023-04-25T03:08:57;6.30;99.90
54898;DHT22;40800;52.704;6.398;2023-04-25T03:11:25;6.10;99.90
54898;DHT22;40800;52.704;6.398;2023-04-25T03:13:50;6.50;99.90
54898;DHT22;40800;52.704;6.398;2023-04-25T03:16:16;5.80;99.90
54898;DHT22;40800;52.704;6.398;2023-04-25T03:18:41;5.80;99.90
54898;DHT22;40800;52.704;6.398;2023-04-25T03:21:07;6.30;99.90
54898;DHT22;40800;52.704;6.398;2023-04-25T03:23:32;6.40;99.90
54898;DHT22;40800;52.704;6.398;2023-04-25T03:25:59;6.10;99.90
54898;DHT22;40800;52.704;6.398;2023-04-25T03:28:24;6.20;99.90
54898;DHT22;40800;52.704;6.398;2023-04-25T03:30:50;6.40;99.90
54898;DHT22;40800;52.704;6.398;2023-04-25T03:33:16;6.40;99.90
54898;DHT22;40800;52.704;6.398;2023-04-25T03:35:41;5.70;99.90
54898;DHT22;40800;52.704;6.398;2023-04-25T03:38:08;6.00;99.90
54898;DHT22;40800;52.704;6.398;2023-04-25T03:40:33;5.60;99.90
54898;DHT22;40800;52.704;6.398;2023-04-25T03:42:59;5.80;99.90
54898;DHT22;40800;52.704;6.398;2023-04-25T03:45:25;6.30;99.90
54898;DHT22;40800;52.704;6.398;2023-04-25T03:47:50;5.60;99.90
54898;DHT22;40800;52.704;6.398;2023-04-25T03:50:16;5.90;99.90
54898;DHT22;40800;52.704;6.398;2023-04-25T03:52:42;5.60;99.90
54898;DHT22;40800;52.704;6.398;2023-04-25T03:55:08;6.00;99.90
54898;DHT22;40800;52.704;6.398;2023-04-25T03:57:33;6.40;99.90
54898;DHT22;40800;52.704;6.398;2023-04-25T03:59:59;6.00;99.90
54898;DHT22;40800;52.704;6.398;2023-04-25T04:02:25;5.80;99.90
54898;DHT22;40800;52.704;6.398;2023-04-25T04:04:51;5.90;99.90
54898;DHT22;40800;52.704;6.398;2023-04-25T04:07:16;5.70;99.90
54898;DHT22;40800;52.704;6.398;2023-04-25T04:09:42;6.10;99.90
54898;DHT22;40800;52.704;6.398;2023-04-25T04:12:07;5.80;99.90
54898;DHT22;40800;52.704;6.398;2023-04-25T04:14:33;5.60;99.90
54898;DHT22;40800;52.704;6.398;2023-04-25T04:16:58;5.80;99.90
54898;DHT22;40800;52.704;6.398;2023-04-25T04:19:24;5.60;99.90
54898;DHT22;40800;52.704;6.398;2023-04-25T04:21:49;5.40;99.90
54898;DHT22;40800;52.704;6.398;2023-04-25T04:24:15;5.30;99.90
54898;DHT22;40800;52.704;6.398;2023-04-25T04:26:42;6.00;99.90
54898;DHT22;40800;52.704;6.398;2023-04-25T04:29:10;5.90;99.90
54898;DHT22;40800;52.704;6.398;2023-04-25T04:31:36;5.40;99.90
54898;DHT22;40800;52.704;6.398;2023-04-25T04:34:02;5.40;99.90
54898;DHT22;40800;52.704;6.398;2023-04-25T04:36:29;5.30;99.90
54898;DHT22;40800;52.704;6.398;2023-04-25T04:38:54;5.30;99.90
54898;DHT22;40800;52.704;6.398;2023-04-25T04:41:21;6.00;99.90
54898;DHT22;40800;52.704;6.398;2023-04-25T04:43:47;5.80;99.90
54898;DHT22;40800;52.704;6.398;2023-04-25T04:46:13;5.60;99.90
54898;DHT22;40800;52.704;6.398;2023-04-25T04:48:38;6.00;99.90
54898;DHT22;40800;52.704;6.398;2023-04-25T04:51:05;5.70;99.90
54898;DHT22;40800;52.704;6.398;2023-04-25T04:53:31;5.80;99.90
54898;DHT22;40800;52.704;6.398;2023-04-25T04:55:57;5.60;99.90
54898;DHT22;40800;52.704;6.398;2023-04-25T04:58:23;5.50;99.90
54898;DHT22;40800;52.704;6.398;2023-04-25T05:00:48;5.90;99.90
54898;DHT22;40800;52.704;6.398;2023-04-25T05:03:14;6.00;99.90
54898;DHT22;40800;52.704;6.398;2023-04-25T05:05:41;5.90;99.90
54898;DHT22;40800;52.704;6.398;2023-04-25T05:08:06;5.60;99.90
54898;DHT22;40800;52.704;6.398;2023-04-25T05:10:32;6.00;99.90
54898;DHT22;40800;52.704;6.398;2023-04-25T05:12:58;5.50;99.90
54898;DHT22;40800;52.704;6.398;2023-04-25T05:15:23;5.80;99.90
54898;DHT22;40800;52.704;6.398;2023-04-25T05:17:49;5.90;99.90
54898;DHT22;40800;52.704;6.398;2023-04-25T05:20:14;5.80;99.90
54898;DHT22;40800;52.704;6.398;2023-04-25T05:22:40;5.80;99.90
54898;DHT22;40800;52.704;6.398;2023-04-25T05:25:08;6.20;99.90
54898;DHT22;40800;52.704;6.398;2023-04-25T05:27:34;5.60;99.90
54898;DHT22;40800;52.704;6.398;2023-04-25T05:29:59;6.20;99.90
54898;DHT22;40800;52.704;6.398;2023-04-25T05:32:25;5.70;99.90
54898;DHT22;40800;52.704;6.398;2023-04-25T05:34:51;5.70;99.90
54898;DHT22;40800;52.704;6.398;2023-04-25T05:37:17;5.90;99.90
54898;DHT22;40800;52.704;6.398;2023-04-25T05:39:42;5.60;99.90
54898;DHT22;40800;52.704;6.398;2023-04-25T05:42:08;6.00;99.90
54898;DHT22;40800;52.704;6.398;2023-04-25T05:44:34;5.60;99.90
54898;DHT22;40800;52.704;6.398;2023-04-25T05:46:59;5.60;99.90
54898;DHT22;40800;52.704;6.398;2023-04-25T05:49:25;5.80;99.90
54898;DHT22;40800;52.704;6.398;2023-04-25T05:51:50;5.60;99.90
54898;DHT22;40800;52.704;6.398;2023-04-25T05:54:16;6.10;99.90
54898;DHT22;40800;52.704;6.398;2023-04-25T05:56:41;5.80;99.90
54898;DHT22;40800;52.704;6.398;2023-04-25T05:59:07;6.10;99.90
54898;DHT22;40800;52.704;6.398;2023-04-25T06:01:33;6.30;99.90
54898;DHT22;40800;52.704;6.398;2023-04-25T06:03:58;6.10;99.90
54898;DHT22;40800;52.704;6.398;2023-04-25T06:06:24;6.30;99.90
54898;DHT22;40800;52.704;6.398;2023-04-25T06:08:49;6.30;99.90
54898;DHT22;40800;52.704;6.398;2023-04-25T06:11:15;6.40;99.90
54898;DHT22;40800;52.704;6.398;2023-04-25T06:13:41;6.50;99.90
54898;DHT22;40800;52.704;6.398;2023-04-25T06:16:06;6.30;99.90
54898;DHT22;40800;52.704;6.398;2023-04-25T06:18:32;6.30;99.90
54898;DHT22;40800;52.704;6.398;2023-04-25T06:20:58;6.50;99.90
54898;DHT22;40800;52.704;6.398;2023-04-25T06:23:23;6.40;99.90
54898;DHT22;40800;52.704;6.398;2023-04-25T06:25:49;6.40;99.90
54898;DHT22;40800;52.704;6.398;2023-04-25T06:28:15;6.60;99.90
54898;DHT22;40800;52.704;6.398;2023-04-25T06:30:40;6.50;99.90
54898;DHT22;40800;52.704;6.398;2023-04-25T06:33:06;6.50;99.90
54898;DHT22;40800;52.704;6.398;2023-04-25T06:35:34;6.70;99.90
54898;DHT22;40800;52.704;6.398;2023-04-25T06:37:59;6.60;99.90
54898;DHT22;40800;52.704;6.398;2023-04-25T06:40:25;6.60;99.90
54898;DHT22;40800;52.704;6.398;2023-04-25T06:42:50;6.60;99.90
54898;DHT22;40800;52.704;6.398;2023-04-25T06:45:16;6.50;99.90
54898;DHT22;40800;52.704;6.398;2023-04-25T06:47:42;6.70;99.90
54898;DHT22;40800;52.704;6.398;2023-04-25T06:50:08;6.70;99.90
54898;DHT22;40800;52.704;6.398;2023-04-25T06:52:34;6.90;99.90
54898;DHT22;40800;52.704;6.398;2023-04-25T06:54:59;7.00;99.90
54898;DHT22;40800;52.704;6.398;2023-04-25T06:57:25;6.90;99.90
54898;DHT22;40800;52.704;6.398;2023-04-25T06:59:51;7.10;99.90
54898;DHT22;40800;52.704;6.398;2023-04-25T07:02:16;7.30;99.90
54898;DHT22;40800;52.704;6.398;2023-04-25T07:04:42;7.20;99.90
54898;DHT22;40800;52.704;6.398;2023-04-25T07:07:08;7.30;99.90
54898;DHT22;40800;52.704;6.398;2023-04-25T07:09:33;7.40;99.90
54898;DHT22;40800;52.704;6.398;2023-04-25T07:12:00;7.50;99.90
54898;DHT22;40800;52.704;6.398;2023-04-25T07:14:27;7.60;99.90
54898;DHT22;40800;52.704;6.398;2023-04-25T07:16:52;7.70;99.90
54898;DHT22;40800;52.704;6.398;2023-04-25T07:19:18;8.00;99.90
54898;DHT22;40800;52.704;6.398;2023-04-25T07:21:43;8.00;99.90
54898;DHT22;40800;52.704;6.398;2023-04-25T07:24:09;8.10;99.90
54898;DHT22;40800;52.704;6.398;2023-04-25T07:26:34;8.20;99.90
54898;DHT22;40800;52.704;6.398;2023-04-25T07:29:00;8.30;99.90
54898;DHT22;40800;52.704;6.398;2023-04-25T07:31:25;8.30;99.90
54898;DHT22;40800;52.704;6.398;2023-04-25T07:33:52;8.30;99.90
54898;DHT22;40800;52.704;6.398;2023-04-25T07:36:17;8.40;99.90
54898;DHT22;40800;52.704;6.398;2023-04-25T07:38:43;8.40;99.90
54898;DHT22;40800;52.704;6.398;2023-04-25T07:41:08;8.60;99.90
54898;DHT22;40800;52.704;6.398;2023-04-25T07:43:34;8.80;99.90
54898;DHT22;40800;52.704;6.398;2023-04-25T07:45:59;8.50;99.90
54898;DHT22;40800;52.704;6.398;2023-04-25T07:48:25;8.50;99.90
54898;DHT22;40800;52.704;6.398;2023-04-25T07:50:50;8.40;99.90
54898;DHT22;40800;52.704;6.398;2023-04-25T07:53:16;8.10;99.90
54898;DHT22;40800;52.704;6.398;2023-04-25T07:55:43;8.00;99.90
54898;DHT22;40800;52.704;6.398;2023-04-25T07:58:09;7.90;99.90
54898;DHT22;40800;52.704;6.398;2023-04-25T08:00:35;8.00;99.90
54898;DHT22;40800;52.704;6.398;2023-04-25T08:03:01;8.20;99.90
54898;DHT22;40800;52.704;6.398;2023-04-25T08:05:28;8.30;99.90
54898;DHT22;40800;52.704;6.398;2023-04-25T08:07:53;8.50;99.90
54898;DHT22;40800;52.704;6.398;2023-04-25T08:10:19;8.70;99.90
54898;DHT22;40800;52.704;6.398;2023-04-25T08:12:45;9.00;99.90
54898;DHT22;40800;52.704;6.398;2023-04-25T08:15:11;9.20;99.90
54898;DHT22;40800;52.704;6.398;2023-04-25T08:17:39;9.40;99.90
54898;DHT22;40800;52.704;6.398;2023-04-25T08:20:05;9.40;99.90
54898;DHT22;40800;52.704;6.398;2023-04-25T08:22:31;8.70;99.90
54898;DHT22;40800;52.704;6.398;2023-04-25T08:24:56;8.00;99.90
54898;DHT22;40800;52.704;6.398;2023-04-25T08:27:22;7.50;99.90
54898;DHT22;40800;52.704;6.398;2023-04-25T08:29:47;7.10;99.90
54898;DHT22;40800;52.704;6.398;2023-04-25T08:32:13;7.10;99.90
54898;DHT22;40800;52.704;6.398;2023-04-25T08:34:39;7.20;99.90
54898;DHT22;40800;52.704;6.398;2023-04-25T08:37:08;7.10;99.90
54898;DHT22;40800;52.704;6.398;2023-04-25T08:39:35;7.30;99.90
54898;DHT22;40800;52.704;6.398;2023-04-25T08:42:02;7.70;99.90
54898;DHT22;40800;52.704;6.398;2023-04-25T08:44:33;8.00;99.90
54898;DHT22;40800;52.704;6.398;2023-04-25T08:46:59;7.90;99.90
54898;DHT22;40800;52.704;6.398;2023-04-25T08:49:25;8.00;99.90
54898;DHT22;40800;52.704;6.398;2023-04-25T08:51:52;8.20;99.90
54898;DHT22;40800;52.704;6.398;2023-04-25T08:54:20;8.10;99.90
54898;DHT22;40800;52.704;6.398;2023-04-25T08:56:50;8.00;99.90
54898;DHT22;40800;52.704;6.398;2023-04-25T08:59:16;8.20;99.90
54898;DHT22;40800;52.704;6.398;2023-04-25T09:01:42;8.30;99.90
54898;DHT22;40800;52.704;6.398;2023-04-25T09:04:08;8.20;99.90
54898;DHT22;40800;52.704;6.398;2023-04-25T09:06:34;8.60;99.90
54898;DHT22;40800;52.704;6.398;2023-04-25T09:09:07;8.90;99.90
54898;DHT22;40800;52.704;6.398;2023-04-25T09:11:35;8.90;99.90
54898;DHT22;40800;52.704;6.398;2023-04-25T09:14:14;9.20;99.90
54898;DHT22;40800;52.704;6.398;2023-04-25T09:19:25;9.80;99.90
54898;DHT22;40800;52.704;6.398;2023-04-25T09:21:54;9.90;99.90
54898;DHT22;40800;52.704;6.398;2023-04-25T09:26:58;10.50;99.90
54898;DHT22;40800;52.704;6.398;2023-04-25T09:29:34;10.40;99.90
54898;DHT22;40800;52.704;6.398;2023-04-25T09:32:18;10.20;99.90
54898;DHT22;40800;52.704;6.398;2023-04-25T09:34:48;9.90;99.90
54898;DHT22;40800;52.704;6.398;2023-04-25T09:37:22;9.50;99.90
54898;DHT22;40800;52.704;6.398;2023-04-25T09:39:50;9.60;99.90
54898;DHT22;40800;52.704;6.398;2023-04-25T09:42:16;10.00;99.90
54898;DHT22;40800;52.704;6.398;2023-04-25T09:44:46;10.00;99.90
54898;DHT22;40800;52.704;6.398;2023-04-25T09:47:15;10.20;99.90
54898;DHT22;40800;52.704;6.398;2023-04-25T09:49:43;10.40;99.90
54898;DHT22;40800;52.704;6.398;2023-04-25T09:52:16;10.40;99.90
54898;DHT22;40800;52.704;6.398;2023-04-25T09:54:42;10.60;99.90
54898;DHT22;40800;52.704;6.398;2023-04-25T09:57:14;10.60;99.90
54898;DHT22;40800;52.704;6.398;2023-04-25T09:59:44;10.60;99.90
54898;DHT22;40800;52.704;6.398;2023-04-25T10:02:11;11.10;99.90
54898;DHT22;40800;52.704;6.398;2023-04-25T10:04:38;11.40;99.90
54898;DHT22;40800;52.704;6.398;2023-04-25T10:07:06;11.40;99.90
54898;DHT22;40800;52.704;6.398;2023-04-25T10:09:32;11.50;99.90
54898;DHT22;40800;52.704;6.398;2023-04-25T10:12:02;11.60;99.90
54898;DHT22;40800;52.704;6.398;2023-04-25T10:14:30;11.50;99.90
54898;DHT22;40800;52.704;6.398;2023-04-25T10:16:57;11.90;99.90
54898;DHT22;40800;52.704;6.398;2023-04-25T10:19:24;11.70;99.90
54898;DHT22;40800;52.704;6.398;2023-04-25T10:21:56;10.80;99.90
54898;DHT22;40800;52.704;6.398;2023-04-25T10:24:24;10.50;99.90
54898;DHT22;40800;52.704;6.398;2023-04-25T10:26:50;10.30;99.90
54898;DHT22;40800;52.704;6.398;2023-04-25T10:29:24;10.20;99.90
54898;DHT22;40800;52.704;6.398;2023-04-25T10:31:50;10.00;99.90
54898;DHT22;40800;52.704;6.398;2023-04-25T10:34:16;10.00;99.90
54898;DHT22;40800;52.704;6.398;2023-04-25T10:36:42;9.70;99.90
54898;DHT22;40800;52.704;6.398;2023-04-25T10:39:08;9.20;99.90
54898;DHT22;40800;52.704;6.398;2023-04-25T10:41:48;8.80;99.90
54898;DHT22;40800;52.704;6.398;2023-04-25T10:44:17;8.60;99.90
54898;DHT22;40800;52.704;6.398;2023-04-25T10:46:44;8.80;99.90
54898;DHT22;40800;52.704;6.398;2023-04-25T10:49:10;8.70;99.90
54898;DHT22;40800;52.704;6.398;2023-04-25T10:51:36;8.80;99.90
54898;DHT22;40800;52.704;6.398;2023-04-25T10:54:04;8.90;99.90
54898;DHT22;40800;52.704;6.398;2023-04-25T10:56:36;8.90;99.90
54898;DHT22;40800;52.704;6.398;2023-04-25T10:59:15;9.00;99.90
54898;DHT22;40800;52.704;6.398;2023-04-25T11:01:53;9.10;99.90
54898;DHT22;40800;52.704;6.398;2023-04-25T11:09:57;10.00;99.90
54898;DHT22;40800;52.704;6.398;2023-04-25T11:12:26;10.50;99.90
54898;DHT22;40800;52.704;6.398;2023-04-25T11:15:01;10.90;99.90
54898;DHT22;40800;52.704;6.398;2023-04-25T11:17:27;11.00;99.90
54898;DHT22;40800;52.704;6.398;2023-04-25T11:19:54;11.10;99.90
54898;DHT22;40800;52.704;6.398;2023-04-25T11:22:21;10.90;99.90
54898;DHT22;40800;52.704;6.398;2023-04-25T11:24:47;10.90;99.90
54898;DHT22;40800;52.704;6.398;2023-04-25T11:27:13;10.90;99.90
54898;DHT22;40800;52.704;6.398;2023-04-25T11:29:38;11.30;99.90
54898;DHT22;40800;52.704;6.398;2023-04-25T11:32:04;11.80;99.90
54898;DHT22;40800;52.704;6.398;2023-04-25T11:34:30;12.30;99.90
54898;DHT22;40800;52.704;6.398;2023-04-25T11:36:56;12.70;99.90
54898;DHT22;40800;52.704;6.398;2023-04-25T11:39:24;12.80;99.90
54898;DHT22;40800;52.704;6.398;2023-04-25T11:41:50;13.00;99.90
54898;DHT22;40800;52.704;6.398;2023-04-25T11:44:16;12.70;99.90
54898;DHT22;40800;52.704;6.398;2023-04-25T11:46:43;12.60;99.90
54898;DHT22;40800;52.704;6.398;2023-04-25T11:49:09;12.40;99.90
54898;DHT22;40800;52.704;6.398;2023-04-25T11:51:42;12.90;99.90
54898;DHT22;40800;52.704;6.398;2023-04-25T11:54:08;12.90;99.90
54898;DHT22;40800;52.704;6.398;2023-04-25T11:56:34;12.70;99.90
54898;DHT22;40800;52.704;6.398;2023-04-25T11:59:03;12.50;99.90
54898;DHT22;40800;52.704;6.398;2023-04-25T12:01:31;12.70;99.90
54898;DHT22;40800;52.704;6.398;2023-04-25T12:03:57;12.90;99.90
54898;DHT22;40800;52.704;6.398;2023-04-25T12:06:29;13.00;99.90
54898;DHT22;40800;52.704;6.398;2023-04-25T12:11:26;12.80;21.50
54898;DHT22;40800;52.704;6.398;2023-04-25T12:13:52;13.30;99.90
54898;DHT22;40800;52.704;6.398;2023-04-25T12:16:19;13.80;93.30
54898;DHT22;40800;52.704;6.398;2023-04-25T12:18:44;13.40;99.90
54898;DHT22;40800;52.704;6.398;2023-04-25T12:21:10;12.60;97.00
54898;DHT22;40800;52.704;6.398;2023-04-25T12:23:38;12.20;1.60
54898;DHT22;40800;52.704;6.398;2023-04-25T12:26:04;11.70;1.00
54898;DHT22;40800;52.704;6.398;2023-04-25T12:28:32;10.80;1.00
54898;DHT22;40800;52.704;6.398;2023-04-25T12:31:05;10.30;47.60
54898;DHT22;40800;52.704;6.398;2023-04-25T12:33:36;9.80;93.60
54898;DHT22;40800;52.704;6.398;2023-04-25T12:36:04;9.70;99.90
54898;DHT22;40800;52.704;6.398;2023-04-25T12:38:38;9.60;99.90
54898;DHT22;40800;52.704;6.398;2023-04-25T12:41:04;9.50;99.90
54898;DHT22;40800;52.704;6.398;2023-04-25T12:43:30;9.40;99.90
54898;DHT22;40800;52.704;6.398;2023-04-25T12:45:56;9.60;99.90
54898;DHT22;40800;52.704;6.398;2023-04-25T12:48:22;10.30;99.90
54898;DHT22;40800;52.704;6.398;2023-04-25T12:50:49;11.10;99.90
54898;DHT22;40800;52.704;6.398;2023-04-25T12:53:16;11.90;99.90
54898;DHT22;40800;52.704;6.398;2023-04-25T12:55:42;12.10;99.90
54898;DHT22;40800;52.704;6.398;2023-04-25T12:58:07;12.20;99.90
54898;DHT22;40800;52.704;6.398;2023-04-25T13:00:33;11.80;60.10
54898;DHT22;40800;52.704;6.398;2023-04-25T13:02:59;11.70;75.00
54898;DHT22;40800;52.704;6.398;2023-04-25T13:05:25;11.90;69.40
54898;DHT22;40800;52.704;6.398;2023-04-25T13:07:51;12.10;27.90
54898;DHT22;40800;52.704;6.398;2023-04-25T13:10:17;12.40;1.00
54898;DHT22;40800;52.704;6.398;2023-04-25T13:12:43;12.90;66.50
54898;DHT22;40800;52.704;6.398;2023-04-25T13:15:09;13.60;31.40
54898;DHT22;40800;52.704;6.398;2023-04-25T13:17:37;13.80;1.00
54898;DHT22;40800;52.704;6.398;2023-04-25T13:20:07;12.90;99.90
54898;DHT22;40800;52.704;6.398;2023-04-25T13:22:38;12.30;99.90
54898;DHT22;40800;52.704;6.398;2023-04-25T13:25:05;11.80;1.00
54898;DHT22;40800;52.704;6.398;2023-04-25T13:27:32;11.60;1.00
54898;DHT22;40800;52.704;6.398;2023-04-25T13:29:59;11.60;46.20
54898;DHT22;40800;52.704;6.398;2023-04-25T13:32:25;11.40;95.10
54898;DHT22;40800;52.704;6.398;2023-04-25T13:34:51;11.30;93.40
54898;DHT22;40800;52.704;6.398;2023-04-25T13:37:17;11.00;93.70
54898;DHT22;40800;52.704;6.398;2023-04-25T13:39:42;11.00;99.90
54898;DHT22;40800;52.704;6.398;2023-04-25T13:42:08;11.10;99.90
54898;DHT22;40800;52.704;6.398;2023-04-25T13:44:33;11.50;99.90
54898;DHT22;40800;52.704;6.398;2023-04-25T13:46:59;12.50;99.90
54898;DHT22;40800;52.704;6.398;2023-04-25T13:49:26;13.00;99.90
54898;DHT22;40800;52.704;6.398;2023-04-25T13:51:51;13.40;99.90
54898;DHT22;40800;52.704;6.398;2023-04-25T13:54:17;13.50;99.90
54898;DHT22;40800;52.704;6.398;2023-04-25T13:56:42;12.90;99.90
54898;DHT22;40800;52.704;6.398;2023-04-25T13:59:08;12.20;99.90
54898;DHT22;40800;52.704;6.398;2023-04-25T14:01:34;11.20;99.90
54898;DHT22;40800;52.704;6.398;2023-04-25T14:04:01;10.20;99.90
54898;DHT22;40800;52.704;6.398;2023-04-25T14:06:27;9.60;99.90
54898;DHT22;40800;52.704;6.398;2023-04-25T14:08:53;9.30;99.90
54898;DHT22;40800;52.704;6.398;2023-04-25T14:11:19;9.10;99.90
54898;DHT22;40800;52.704;6.398;2023-04-25T14:13:46;9.20;96.90
54898;DHT22;40800;52.704;6.398;2023-04-25T14:16:11;9.60;63.20
54898;DHT22;40800;52.704;6.398;2023-04-25T14:18:37;10.50;99.90
54898;DHT22;40800;52.704;6.398;2023-04-25T14:21:02;11.30;99.90
54898;DHT22;40800;52.704;6.398;2023-04-25T14:23:28;11.40;18.10
54898;DHT22;40800;52.704;6.398;2023-04-25T14:25:54;11.10;1.00
54898;DHT22;40800;52.704;6.398;2023-04-25T14:28:19;11.00;99.90
54898;DHT22;40800;52.704;6.398;2023-04-25T14:30:45;10.80;99.90
54898;DHT22;40800;52.704;6.398;2023-04-25T14:33:11;10.70;99.90
54898;DHT22;40800;52.704;6.398;2023-04-25T14:35:37;10.40;72.10
54898;DHT22;40800;52.704;6.398;2023-04-25T14:38:02;10.00;1.00
54898;DHT22;40800;52.704;6.398;2023-04-25T14:40:28;9.90;1.00
54898;DHT22;40800;52.704;6.398;2023-04-25T14:42:54;10.80;1.00
54898;DHT22;40800;52.704;6.398;2023-04-25T14:45:19;9.70;1.00
54898;DHT22;40800;52.704;6.398;2023-04-25T14:47:45;9.60;1.00
54898;DHT22;40800;52.704;6.398;2023-04-25T14:50:11;9.40;1.00
54898;DHT22;40800;52.704;6.398;2023-04-25T14:52:36;9.50;1.00
54898;DHT22;40800;52.704;6.398;2023-04-25T14:55:03;9.60;1.00
54898;DHT22;40800;52.704;6.398;2023-04-25T14:57:34;9.60;1.00
54898;DHT22;40800;52.704;6.398;2023-04-25T14:59:59;9.90;1.00
54898;DHT22;40800;52.704;6.398;2023-04-25T15:02:26;10.80;1.00
54898;DHT22;40800;52.704;6.398;2023-04-25T15:04:52;11.10;1.00
54898;DHT22;40800;52.704;6.398;2023-04-25T15:07:17;10.90;1.00
54898;DHT22;40800;52.704;6.398;2023-04-25T15:09:43;10.60;1.00
54898;DHT22;40800;52.704;6.398;2023-04-25T15:12:09;10.30;1.00
54898;DHT22;40800;52.704;6.398;2023-04-25T15:14:35;10.00;1.00
54898;DHT22;40800;52.704;6.398;2023-04-25T15:17:00;9.70;1.00
54898;DHT22;40800;52.704;6.398;2023-04-25T15:19:26;9.50;1.00
54898;DHT22;40800;52.704;6.398;2023-04-25T15:21:52;9.40;6.70
54898;DHT22;40800;52.704;6.398;2023-04-25T15:24:18;9.30;1.00
54898;DHT22;40800;52.704;6.398;2023-04-25T15:26:43;9.40;39.60
54898;DHT22;40800;52.704;6.398;2023-04-25T15:29:10;9.80;1.00
54898;DHT22;40800;52.704;6.398;2023-04-25T15:31:37;9.80;1.00
54898;DHT22;40800;52.704;6.398;2023-04-25T15:34:02;10.30;29.60
54898;DHT22;40800;52.704;6.398;2023-04-25T15:36:28;10.60;16.90
54898;DHT22;40800;52.704;6.398;2023-04-25T15:38:54;10.50;1.00
54898;DHT22;40800;52.704;6.398;2023-04-25T15:41:19;10.80;4.30
54898;DHT22;40800;52.704;6.398;2023-04-25T15:43:47;11.10;29.30
54898;DHT22;40800;52.704;6.398;2023-04-25T15:46:13;11.20;9.70
54898;DHT22;40800;52.704;6.398;2023-04-25T15:48:39;10.90;1.00
54898;DHT22;40800;52.704;6.398;2023-04-25T15:51:04;10.60;1.00